createdAt,value
2023-03-06T00:00:30.392Z,99093.00
2023-03-06T00:01:17.360Z,99071.16
2023-03-06T00:01:58.991Z,99088.75
2023-03-06T00:02:40.578Z,99088.59
2023-03-06T00:03:23.793Z,99087.91
2023-03-06T00:04:08.167Z,99061.84
2023-03-06T00:04:49.839Z,99018.66
2023-03-06T00:05:31.566Z,99083.00
2023-03-06T00:06:13.300Z,99090.72
2023-03-06T00:06:55.008Z,99084.66
2023-03-06T00:07:36.647Z,99081.88
2023-03-06T00:08:18.269Z,99088.75
2023-03-06T00:09:00.158Z,99054.81
2023-03-06T00:09:41.819Z,99074.16
2023-03-06T00:10:26.500Z,99083.19
2023-03-06T00:11:08.136Z,99074.50
2023-03-06T00:11:49.773Z,99089.72
2023-03-06T00:12:31.421Z,99087.41
2023-03-06T00:13:15.044Z,99083.34
2023-03-06T00:13:56.636Z,99068.59
2023-03-06T00:14:38.260Z,99076.94
2023-03-06T00:15:20.244Z,99078.59
2023-03-06T00:16:01.979Z,99029.19
2023-03-06T00:16:43.613Z,99072.50
2023-03-06T00:17:25.228Z,99071.53
2023-03-06T00:18:07.311Z,99072.50
2023-03-06T00:18:48.925Z,99077.75
2023-03-06T00:19:30.520Z,99056.75
2023-03-06T00:20:13.164Z,99005.53
2023-03-06T00:20:54.876Z,99077.28
2023-03-06T00:21:36.468Z,99072.03
2023-03-06T00:22:18.111Z,99058.72
2023-03-06T00:23:00.429Z,99078.25
2023-03-06T00:23:42.076Z,99081.34
2023-03-06T00:24:23.734Z,99062.81
2023-03-06T00:25:06.930Z,99063.09
2023-03-06T00:25:48.635Z,99055.19
2023-03-06T00:26:30.205Z,99072.09
2023-03-06T00:27:11.881Z,99068.81
2023-03-06T00:27:53.535Z,99004.78
2023-03-06T00:28:35.844Z,99060.56
2023-03-06T00:29:17.436Z,99065.88
2023-03-06T00:30:00.894Z,99052.56
2023-03-06T00:30:43.173Z,99067.38
2023-03-06T00:31:24.848Z,99046.03
2023-03-06T00:32:07.011Z,99072.91
2023-03-06T00:32:49.821Z,99052.41
2023-03-06T00:33:31.493Z,99076.97
2023-03-06T00:34:13.740Z,99007.38
2023-03-06T00:34:56.004Z,99071.72
2023-03-06T00:35:42.622Z,99058.06
2023-03-06T00:36:26.420Z,99056.72
2023-03-06T00:37:08.027Z,99063.31
2023-03-06T00:37:49.824Z,99067.41
2023-03-06T00:38:33.465Z,99062.66
2023-03-06T00:39:15.348Z,99071.03
2023-03-06T00:39:57.049Z,99069.25
2023-03-06T00:40:38.918Z,99057.94
2023-03-06T00:41:20.997Z,99054.66
2023-03-06T00:42:02.638Z,99025.13
2023-03-06T00:42:44.745Z,99055.00
2023-03-06T00:43:27.051Z,99054.88
2023-03-06T00:44:08.751Z,99058.31
2023-03-06T00:44:50.512Z,98994.59
2023-03-06T00:45:32.468Z,99048.81
2023-03-06T00:46:14.072Z,99045.66
2023-03-06T00:46:55.677Z,99059.59
2023-03-06T00:47:38.995Z,99054.13
2023-03-06T00:48:20.949Z,99058.22
2023-03-06T00:49:02.682Z,99019.47
2023-03-06T00:49:45.349Z,99056.72
2023-03-06T00:50:27.004Z,99055.09
2023-03-06T00:51:08.758Z,99066.06
2023-03-06T00:51:50.348Z,99053.16
2023-03-06T00:52:32.130Z,99049.25
2023-03-06T00:53:13.768Z,99049.09
2023-03-06T00:53:55.591Z,99060.25
2023-03-06T00:54:37.269Z,99048.13
2023-03-06T00:55:18.933Z,99061.22
2023-03-06T00:56:00.641Z,99046.47
2023-03-06T00:56:42.250Z,99035.34
2023-03-06T00:57:24.436Z,99028.94
2023-03-06T00:58:06.168Z,99037.28
2023-03-06T00:58:47.800Z,99037.28
2023-03-06T00:59:29.465Z,99031.56
2023-03-06T01:00:13.457Z,98984.09
2023-03-06T01:00:55.087Z,99017.94
2023-03-06T01:01:37.383Z,99030.22
2023-03-06T01:02:19.162Z,99028.06
2023-03-06T01:03:01.255Z,98990.13
2023-03-06T01:03:42.832Z,98975.34
2023-03-06T01:04:24.578Z,99014.53
2023-03-06T01:05:07.763Z,99014.84
2023-03-06T01:05:49.426Z,99041.41
2023-03-06T01:06:31.422Z,99040.22
2023-03-06T01:07:13.029Z,99036.28
2023-03-06T01:07:54.882Z,99026.84
2023-03-06T01:08:36.560Z,99045.78
2023-03-06T01:09:18.169Z,99027.63
2023-03-06T01:10:00.557Z,99028.16
2023-03-06T01:10:42.250Z,99003.06
2023-03-06T01:11:24.194Z,99029.47
2023-03-06T01:12:06.149Z,98989.59
2023-03-06T01:12:49.093Z,99004.19
2023-03-06T01:13:30.855Z,99032.25
2023-03-06T01:14:12.563Z,99025.19
2023-03-06T01:14:54.166Z,98977.94
2023-03-06T01:15:35.887Z,99031.47
2023-03-06T01:16:19.153Z,99031.16
2023-03-06T01:17:03.390Z,99027.41
2023-03-06T01:17:45.200Z,99034.28
2023-03-06T01:18:27.062Z,99030.19
2023-03-06T01:19:10.517Z,99027.06
2023-03-06T01:19:52.132Z,99022.44
2023-03-06T01:20:33.801Z,98998.81
2023-03-06T01:21:15.850Z,99032.44
2023-03-06T01:21:57.586Z,99009.34
2023-03-06T01:22:39.279Z,99010.16
2023-03-06T01:23:20.942Z,99015.91
2023-03-06T01:24:03.095Z,99020.53
2023-03-06T01:24:44.692Z,99027.25
2023-03-06T01:25:26.824Z,99021.19
2023-03-06T01:26:08.541Z,99004.84
2023-03-06T01:26:50.244Z,99020.25
2023-03-06T01:27:31.972Z,99006.81
2023-03-06T01:28:13.587Z,99020.75
2023-03-06T01:28:57.370Z,99008.81
2023-03-06T01:29:39.155Z,99002.09
2023-03-06T01:30:21.458Z,98992.56
2023-03-06T01:31:04.173Z,99001.94
2023-03-06T01:31:45.927Z,99009.00
2023-03-06T01:32:28.072Z,99007.06
2023-03-06T01:33:09.662Z,99004.28
2023-03-06T01:33:51.627Z,98984.28
2023-03-06T01:34:33.318Z,98995.72
2023-03-06T01:35:15.234Z,99011.16
2023-03-06T01:35:56.982Z,99008.69
2023-03-06T01:36:38.820Z,98949.09
2023-03-06T01:37:20.480Z,99002.94
2023-03-06T01:38:02.149Z,99014.69
2023-03-06T01:38:44.156Z,98990.78
2023-03-06T01:39:25.763Z,98994.16
2023-03-06T01:40:09.641Z,98993.03
2023-03-06T01:40:51.323Z,98999.09
2023-03-06T01:41:32.981Z,98995.81
2023-03-06T01:42:15.108Z,98976.13
2023-03-06T01:42:58.440Z,99001.19
2023-03-06T01:43:44.188Z,98946.88
2023-03-06T01:44:25.819Z,98990.03
2023-03-06T01:45:13.417Z,98998.72
2023-03-06T01:46:13.707Z,98992.16
2023-03-06T01:46:55.327Z,98999.34
2023-03-06T01:47:36.914Z,98994.28
2023-03-06T01:48:23.037Z,98992.34
2023-03-06T01:49:36.253Z,98983.50
2023-03-06T01:50:18.172Z,98954.63
2023-03-06T01:50:59.758Z,98957.91
2023-03-06T01:52:02.304Z,98975.00
2023-03-06T01:52:49.907Z,98948.41
2023-03-06T01:53:32.122Z,98975.81
2023-03-06T01:54:20.408Z,98981.06
2023-03-06T01:55:19.645Z,98919.38
2023-03-06T01:56:01.276Z,98957.25
2023-03-06T01:56:46.910Z,98971.53
2023-03-06T01:57:34.279Z,98963.47
2023-03-06T01:58:18.387Z,98958.81
2023-03-06T01:59:00.631Z,98961.09
2023-03-06T01:59:42.988Z,98964.88
2023-03-06T02:00:28.126Z,98958.00
2023-03-06T02:01:12.915Z,98964.09
2023-03-06T02:01:57.057Z,98940.66
2023-03-06T02:02:40.296Z,98973.63
2023-03-06T02:03:25.353Z,98964.34
2023-03-06T02:04:07.216Z,98959.91
2023-03-06T02:04:48.949Z,98956.50
2023-03-06T02:05:30.667Z,98965.84
2023-03-06T02:06:12.294Z,98956.03
2023-03-06T02:06:55.410Z,98932.41
2023-03-06T02:07:37.950Z,98947.84
2023-03-06T02:08:23.029Z,98978.00
2023-03-06T02:09:05.476Z,98966.56
2023-03-06T02:09:47.189Z,98955.75
2023-03-06T02:10:30.324Z,98959.38
2023-03-06T02:11:15.714Z,98906.38
2023-03-06T02:11:57.741Z,98909.84
2023-03-06T02:12:43.622Z,98955.63
2023-03-06T02:13:25.382Z,98949.72
2023-03-06T02:14:07.091Z,98944.63
2023-03-06T02:14:49.188Z,98922.31
2023-03-06T02:15:31.004Z,98934.44
2023-03-06T02:16:14.745Z,98951.81
2023-03-06T02:16:56.509Z,98920.00
2023-03-06T02:17:38.265Z,98930.34
2023-03-06T02:18:20.029Z,98932.28
2023-03-06T02:19:02.968Z,98955.59
2023-03-06T02:19:57.571Z,98949.34
2023-03-06T02:20:51.044Z,98953.47
2023-03-06T02:21:36.084Z,98953.47
2023-03-06T02:22:17.716Z,98946.72
2023-03-06T02:23:14.695Z,98945.91
2023-03-06T02:24:11.029Z,98938.34
2023-03-06T02:25:04.733Z,98951.13
2023-03-06T02:25:49.679Z,98884.97
2023-03-06T02:26:33.885Z,98942.56
2023-03-06T02:27:17.384Z,98938.91
2023-03-06T02:27:59.014Z,98939.94
2023-03-06T02:28:40.860Z,98943.84
2023-03-06T02:29:26.202Z,98939.91
2023-03-06T02:30:09.530Z,98940.88
2023-03-06T02:30:53.646Z,98940.41
2023-03-06T02:31:35.676Z,98944.97
2023-03-06T02:32:17.616Z,98951.88
2023-03-06T02:32:59.443Z,98931.44
2023-03-06T02:33:41.060Z,98948.97
2023-03-06T02:34:22.640Z,98930.31
2023-03-06T02:35:04.707Z,98944.06
2023-03-06T02:35:55.787Z,98936.06
2023-03-06T02:36:45.192Z,98931.16
2023-03-06T02:37:28.732Z,98926.25
2023-03-06T02:38:16.400Z,98937.22
2023-03-06T02:38:58.579Z,98933.16
2023-03-06T02:39:45.014Z,98926.88
2023-03-06T02:40:26.919Z,98934.63
2023-03-06T02:41:09.142Z,98938.88
2023-03-06T02:41:50.824Z,98927.75
2023-03-06T02:42:33.909Z,98940.19
2023-03-06T02:43:22.863Z,98854.75
2023-03-06T02:44:04.469Z,98908.38
2023-03-06T02:44:46.195Z,98933.91
2023-03-06T02:45:44.399Z,98927.53
2023-03-06T02:46:26.456Z,98938.31
2023-03-06T02:47:08.143Z,98929.97
2023-03-06T02:47:49.804Z,98926.53
2023-03-06T02:48:31.478Z,98901.94
2023-03-06T02:49:13.097Z,98931.94
2023-03-06T02:49:54.780Z,98926.34
2023-03-06T02:50:36.472Z,98928.44
2023-03-06T02:51:18.102Z,98924.34
2023-03-06T02:51:59.735Z,98927.31
2023-03-06T02:52:41.308Z,98931.19
2023-03-06T02:53:22.984Z,98936.44
2023-03-06T02:54:04.691Z,98913.66
2023-03-06T02:54:46.377Z,98925.50
2023-03-06T02:55:28.240Z,98922.88
2023-03-06T02:56:10.609Z,98890.56
2023-03-06T02:56:52.263Z,98921.91
2023-03-06T02:57:33.927Z,98913.22
2023-03-06T02:58:15.945Z,98915.03
2023-03-06T02:58:58.380Z,98863.88
2023-03-06T02:59:40.703Z,98927.16
2023-03-06T03:00:22.497Z,98914.88
2023-03-06T03:01:04.849Z,98919.09
2023-03-06T03:01:47.715Z,98915.34
2023-03-06T03:02:29.453Z,98897.00
2023-03-06T03:03:11.167Z,98899.97
2023-03-06T03:03:52.781Z,98904.56
2023-03-06T03:04:35.954Z,98905.25
2023-03-06T03:05:19.082Z,98850.97
2023-03-06T03:06:06.891Z,98906.22
2023-03-06T03:06:49.479Z,98907.72
2023-03-06T03:07:31.108Z,98905.63
2023-03-06T03:08:13.097Z,98914.28
2023-03-06T03:08:55.062Z,98882.00
2023-03-06T03:09:37.192Z,98894.94
2023-03-06T03:10:19.173Z,98919.03
2023-03-06T03:11:01.249Z,98887.53
2023-03-06T03:11:47.853Z,98902.13
2023-03-06T03:12:30.151Z,98908.03
2023-03-06T03:13:12.038Z,98892.81
2023-03-06T03:13:54.586Z,98906.25
2023-03-06T03:14:38.930Z,98855.13
2023-03-06T03:15:20.658Z,98884.44
2023-03-06T03:16:05.251Z,98903.63
2023-03-06T03:16:46.945Z,98892.81
2023-03-06T03:17:28.585Z,98838.69
2023-03-06T03:18:11.444Z,98864.41
2023-03-06T03:18:53.069Z,98891.03
2023-03-06T03:19:37.116Z,98899.34
2023-03-06T03:20:22.163Z,98894.78
2023-03-06T03:21:07.864Z,98903.97
2023-03-06T03:21:49.506Z,98873.97
2023-03-06T03:22:31.640Z,98893.66
2023-03-06T03:23:13.271Z,98887.94
2023-03-06T03:23:54.894Z,98898.91
2023-03-06T03:24:36.608Z,98902.34
2023-03-06T03:25:19.892Z,98888.41
2023-03-06T03:26:10.005Z,98899.88
2023-03-06T03:26:54.252Z,98880.56
2023-03-06T03:27:37.721Z,98912.66
2023-03-06T03:28:20.083Z,98832.84
2023-03-06T03:29:01.968Z,98880.22
2023-03-06T03:29:43.730Z,98903.66
2023-03-06T03:30:25.835Z,98890.53
2023-03-06T03:31:09.494Z,98911.34
2023-03-06T03:31:51.235Z,98905.63
2023-03-06T03:32:33.047Z,98827.59
2023-03-06T03:33:14.867Z,98885.44
2023-03-06T03:33:56.697Z,98904.13
2023-03-06T03:34:38.388Z,98899.19
2023-03-06T03:35:20.536Z,98907.88
2023-03-06T03:36:04.522Z,98873.63
2023-03-06T03:36:46.183Z,98898.53
2023-03-06T03:37:28.578Z,98901.31
2023-03-06T03:38:10.404Z,98899.69
2023-03-06T03:38:52.304Z,98900.69
2023-03-06T03:39:33.922Z,98872.28
2023-03-06T03:40:17.545Z,98894.56
2023-03-06T03:41:01.019Z,98873.75
2023-03-06T03:41:42.766Z,98895.38
2023-03-06T03:42:25.784Z,98877.34
2023-03-06T03:43:08.666Z,98902.72
2023-03-06T03:43:50.370Z,98889.78
2023-03-06T03:44:32.397Z,98892.88
2023-03-06T03:45:14.173Z,98881.22
2023-03-06T03:45:56.163Z,98891.38
2023-03-06T03:46:38.985Z,98891.53
2023-03-06T03:47:25.522Z,98891.69
2023-03-06T03:48:07.132Z,98893.16
2023-03-06T03:48:48.706Z,98883.53
2023-03-06T03:49:31.220Z,98881.53
2023-03-06T03:50:14.218Z,98868.44
2023-03-06T03:51:12.799Z,98898.28
2023-03-06T03:51:58.589Z,98843.22
2023-03-06T03:52:42.834Z,98875.56
2023-03-06T03:53:25.396Z,98863.59
2023-03-06T03:54:07.105Z,98863.44
2023-03-06T03:54:54.086Z,98878.03
2023-03-06T03:55:36.594Z,98866.94
2023-03-06T03:56:18.792Z,98880.19
2023-03-06T03:57:08.692Z,98873.78
2023-03-06T03:57:54.450Z,98873.81
2023-03-06T03:58:36.183Z,98868.44
2023-03-06T03:59:17.813Z,98859.53
2023-03-06T04:00:15.781Z,98873.97
2023-03-06T04:01:06.877Z,98884.25
2023-03-06T04:01:49.603Z,98879.81
2023-03-06T04:02:31.384Z,98886.34
2023-03-06T04:03:21.844Z,98859.16
2023-03-06T04:04:03.615Z,98864.75
2023-03-06T04:04:45.247Z,98865.59
2023-03-06T04:05:26.886Z,98855.75
2023-03-06T04:06:08.688Z,98863.16
2023-03-06T04:06:51.656Z,98868.91
2023-03-06T04:07:34.497Z,98867.63
2023-03-06T04:08:16.122Z,98868.09
2023-03-06T04:09:00.295Z,98866.13
2023-03-06T04:09:41.988Z,98860.22
2023-03-06T04:10:23.653Z,98852.56
2023-03-06T04:11:05.531Z,98861.41
2023-03-06T04:11:47.420Z,98829.41
2023-03-06T04:12:29.086Z,98854.38
2023-03-06T04:13:11.037Z,98848.94
2023-03-06T04:13:56.668Z,98868.91
2023-03-06T04:14:38.983Z,98842.22
2023-03-06T04:15:21.183Z,98857.44
2023-03-06T04:16:03.449Z,98869.88
2023-03-06T04:16:47.088Z,98857.75
2023-03-06T04:17:28.862Z,98849.59
2023-03-06T04:18:11.269Z,98861.34
2023-03-06T04:18:53.486Z,98849.91
2023-03-06T04:19:35.818Z,98864.31
2023-03-06T04:20:17.839Z,98860.38
2023-03-06T04:21:01.084Z,98806.44
2023-03-06T04:21:42.794Z,98832.03
2023-03-06T04:22:24.362Z,98841.56
2023-03-06T04:23:06.423Z,98861.25
2023-03-06T04:23:48.089Z,98862.03
2023-03-06T04:24:29.826Z,98832.22
2023-03-06T04:25:11.862Z,98866.97
2023-03-06T04:25:53.639Z,98852.22
2023-03-06T04:26:36.045Z,98854.84
2023-03-06T04:27:18.673Z,98852.38
2023-03-06T04:28:00.261Z,98855.00
2023-03-06T04:28:42.613Z,98863.88
2023-03-06T04:29:24.282Z,98858.78
2023-03-06T04:30:07.308Z,98850.94
2023-03-06T04:30:50.127Z,98790.44
2023-03-06T04:31:32.200Z,98844.72
2023-03-06T04:32:14.008Z,98766.22
2023-03-06T04:32:55.847Z,98826.50
2023-03-06T04:33:38.051Z,98841.38
2023-03-06T04:34:20.171Z,98851.84
2023-03-06T04:35:02.045Z,98856.78
2023-03-06T04:35:49.084Z,98852.53
2023-03-06T04:36:36.498Z,98840.25
2023-03-06T04:37:27.525Z,98836.16
2023-03-06T04:38:10.090Z,98843.03
2023-03-06T04:38:51.809Z,98840.56
2023-03-06T04:39:33.420Z,98851.56
2023-03-06T04:40:18.954Z,98831.25
2023-03-06T04:41:00.720Z,98829.25
2023-03-06T04:41:42.797Z,98826.50
2023-03-06T04:42:24.877Z,98827.47
2023-03-06T04:43:06.635Z,98771.09
2023-03-06T04:43:48.263Z,98842.56
2023-03-06T04:44:29.822Z,98827.69
2023-03-06T04:45:11.940Z,98833.56
2023-03-06T04:45:53.584Z,98832.75
2023-03-06T04:46:35.641Z,98831.25
2023-03-06T04:47:19.132Z,98835.84
2023-03-06T04:48:01.435Z,98821.75
2023-03-06T04:48:43.409Z,98831.25
2023-03-06T04:49:25.007Z,98826.50
2023-03-06T04:50:07.140Z,98824.53
2023-03-06T04:50:48.799Z,98825.88
2023-03-06T04:51:30.621Z,98833.22
2023-03-06T04:52:12.240Z,98818.34
2023-03-06T04:52:54.370Z,98827.00
2023-03-06T04:53:36.001Z,98818.00
2023-03-06T04:54:19.085Z,98832.91
2023-03-06T04:55:00.777Z,98817.50
2023-03-06T04:55:42.589Z,98771.97
2023-03-06T04:56:24.292Z,98820.13
2023-03-06T04:57:05.982Z,98814.91
2023-03-06T04:57:48.169Z,98804.56
2023-03-06T04:58:30.134Z,98821.31
2023-03-06T04:59:11.757Z,98803.75
2023-03-06T04:59:53.447Z,98829.31
2023-03-06T05:00:35.086Z,98821.47
2023-03-06T05:01:16.815Z,98818.03
2023-03-06T05:01:58.584Z,98771.34
2023-03-06T05:02:42.658Z,98784.44
2023-03-06T05:03:24.289Z,98796.25
2023-03-06T05:04:05.944Z,98800.97
2023-03-06T05:04:47.582Z,98821.16
2023-03-06T05:05:30.239Z,98818.19
2023-03-06T05:06:12.013Z,98812.78
2023-03-06T05:06:53.640Z,98821.78
2023-03-06T05:07:35.318Z,98817.38
2023-03-06T05:08:17.765Z,98806.56
2023-03-06T05:08:59.474Z,98798.69
2023-03-06T05:09:41.174Z,98810.00
2023-03-06T05:10:23.687Z,98815.09
2023-03-06T05:11:05.718Z,98815.25
2023-03-06T05:11:47.349Z,98818.19
2023-03-06T05:12:29.030Z,98817.50
2023-03-06T05:13:10.883Z,98794.25
2023-03-06T05:13:52.445Z,98805.72
2023-03-06T05:14:34.120Z,98796.56
2023-03-06T05:15:16.296Z,98813.59
2023-03-06T05:16:05.495Z,98813.59
2023-03-06T05:16:47.235Z,98813.59
2023-03-06T05:17:28.908Z,98819.00
2023-03-06T05:18:10.614Z,98796.53
2023-03-06T05:18:52.336Z,98820.44
2023-03-06T05:19:34.019Z,98810.31
2023-03-06T05:20:17.840Z,98799.81
2023-03-06T05:21:00.030Z,98815.56
2023-03-06T05:21:41.705Z,98819.63
2023-03-06T05:22:23.737Z,98795.53
2023-03-06T05:23:05.367Z,98818.50
2023-03-06T05:23:47.478Z,98805.72
2023-03-06T05:24:29.038Z,98810.63
2023-03-06T05:25:10.831Z,98813.91
2023-03-06T05:25:52.485Z,98810.31
2023-03-06T05:26:34.801Z,98814.59
2023-03-06T05:27:17.006Z,98772.97
2023-03-06T05:27:58.677Z,98816.22
2023-03-06T05:28:40.801Z,98808.38
2023-03-06T05:29:22.430Z,98795.91
2023-03-06T05:30:04.842Z,98721.38
2023-03-06T05:30:46.486Z,98795.91
2023-03-06T05:31:28.123Z,98814.91
2023-03-06T05:32:10.001Z,98812.44
2023-03-06T05:32:51.923Z,98807.03
2023-03-06T05:33:34.631Z,98819.66
2023-03-06T05:34:16.640Z,98813.28
2023-03-06T05:34:58.237Z,98814.13
2023-03-06T05:35:39.915Z,98735.34
2023-03-06T05:36:21.574Z,98797.41
2023-03-06T05:37:03.204Z,98788.56
2023-03-06T05:37:45.003Z,98788.06
2023-03-06T05:38:27.009Z,98816.53
2023-03-06T05:39:09.245Z,98798.06
2023-03-06T05:39:51.325Z,98786.59
2023-03-06T05:40:33.028Z,98802.97
2023-03-06T05:41:15.224Z,98810.69
2023-03-06T05:41:56.849Z,98746.47
2023-03-06T05:42:38.465Z,98810.84
2023-03-06T05:43:20.244Z,98767.25
2023-03-06T05:44:02.003Z,98795.13
2023-03-06T05:44:44.082Z,98802.47
2023-03-06T05:45:25.685Z,98803.97
2023-03-06T05:46:07.627Z,98810.53
2023-03-06T05:46:50.291Z,98797.91
2023-03-06T05:47:32.393Z,98809.53
2023-03-06T05:48:14.167Z,98807.41
2023-03-06T05:48:57.354Z,98815.56
2023-03-06T05:49:39.211Z,98779.38
2023-03-06T05:50:20.786Z,98807.56
2023-03-06T05:51:03.122Z,98822.13
2023-03-06T05:51:44.711Z,98801.34
2023-03-06T05:52:26.372Z,98818.69
2023-03-06T05:53:07.960Z,98823.09
2023-03-06T05:53:49.930Z,98791.84
2023-03-06T05:54:36.302Z,98808.06
2023-03-06T05:55:19.561Z,98787.41
2023-03-06T05:56:04.602Z,98789.38
2023-03-06T05:56:46.236Z,98802.34
2023-03-06T05:57:27.873Z,98785.63
2023-03-06T05:58:09.480Z,98808.56
2023-03-06T05:58:51.612Z,98798.91
2023-03-06T05:59:33.676Z,98788.59
2023-03-06T06:00:16.316Z,98808.22
2023-03-06T06:00:59.595Z,98795.97
2023-03-06T06:01:41.216Z,98803.47
2023-03-06T06:02:22.818Z,98800.38
2023-03-06T06:03:04.422Z,98811.03
2023-03-06T06:03:46.443Z,98761.06
2023-03-06T06:04:28.431Z,98805.94
2023-03-06T06:05:12.962Z,98788.75
2023-03-06T06:05:54.811Z,98779.88
2023-03-06T06:06:36.451Z,98784.78
2023-03-06T06:07:18.060Z,98805.06
2023-03-06T06:07:59.703Z,98813.59
2023-03-06T06:08:42.172Z,98781.44
2023-03-06T06:09:25.037Z,98800.06
2023-03-06T06:10:07.628Z,98802.84
2023-03-06T06:10:51.018Z,98810.19
2023-03-06T06:11:34.572Z,98808.88
2023-03-06T06:12:16.134Z,98793.63
2023-03-06T06:12:57.991Z,98805.38
2023-03-06T06:13:40.270Z,98773.44
2023-03-06T06:14:22.298Z,98773.94
2023-03-06T06:15:04.565Z,98790.28
2023-03-06T06:15:46.175Z,98792.78
2023-03-06T06:16:27.755Z,98796.75
2023-03-06T06:17:09.418Z,98790.50
2023-03-06T06:17:51.205Z,98795.75
2023-03-06T06:18:32.796Z,98778.75
2023-03-06T06:19:18.602Z,98792.38
2023-03-06T06:20:00.337Z,98782.72
2023-03-06T06:20:41.938Z,98715.84
2023-03-06T06:21:23.593Z,98801.41
2023-03-06T06:22:05.671Z,98788.50
2023-03-06T06:22:47.332Z,98794.56
2023-03-06T06:23:28.960Z,98798.84
2023-03-06T06:24:10.563Z,98781.69
2023-03-06T06:24:52.241Z,98801.00
2023-03-06T06:25:33.951Z,98799.53
2023-03-06T06:26:15.566Z,98798.41
2023-03-06T06:26:58.938Z,98811.84
2023-03-06T06:27:40.633Z,98784.19
2023-03-06T06:28:22.191Z,98801.69
2023-03-06T06:29:04.859Z,98791.06
2023-03-06T06:29:49.715Z,98804.16
2023-03-06T06:30:32.507Z,98806.91
2023-03-06T06:31:14.195Z,98695.44
2023-03-06T06:31:56.682Z,98812.47
2023-03-06T06:32:38.646Z,98804.94
2023-03-06T06:33:20.294Z,98811.84
2023-03-06T06:34:02.265Z,98801.34
2023-03-06T06:34:43.856Z,98777.28
2023-03-06T06:35:26.107Z,98794.47
2023-03-06T06:36:18.649Z,98804.75
2023-03-06T06:37:00.362Z,98800.34
2023-03-06T06:37:42.031Z,98798.38
2023-03-06T06:38:23.692Z,98801.00
2023-03-06T06:39:06.759Z,98781.03
2023-03-06T06:39:48.412Z,98808.53
2023-03-06T06:40:30.066Z,98812.31
2023-03-06T06:41:36.100Z,98801.16
2023-03-06T06:42:35.101Z,98796.72
2023-03-06T06:43:15.366Z,98793.78
2023-03-06T06:43:59.212Z,98791.69
2023-03-06T06:44:40.952Z,98815.25
2023-03-06T06:45:22.678Z,98807.53
2023-03-06T06:46:29.755Z,98800.97
2023-03-06T06:47:22.311Z,98812.81
2023-03-06T06:48:05.272Z,98806.25
2023-03-06T06:48:54.536Z,98814.44
2023-03-06T06:49:36.266Z,98802.66
2023-03-06T06:50:18.074Z,98806.44
2023-03-06T06:51:00.136Z,98796.91
2023-03-06T06:51:42.003Z,98809.72
2023-03-06T06:52:24.869Z,98780.41
2023-03-06T06:53:06.521Z,98686.78
2023-03-06T06:53:51.221Z,98810.38
2023-03-06T06:54:34.343Z,98802.84
2023-03-06T06:55:16.140Z,98800.41
2023-03-06T06:55:58.995Z,98753.41
2023-03-06T06:56:40.705Z,98799.91
2023-03-06T06:57:22.377Z,98802.84
2023-03-06T06:58:04.006Z,98806.28
2023-03-06T06:58:45.627Z,98816.09
2023-03-06T06:59:27.487Z,98792.69
2023-03-06T07:00:12.294Z,98810.03
2023-03-06T07:00:53.998Z,98807.75
2023-03-06T07:01:35.659Z,98809.06
2023-03-06T07:02:17.529Z,98802.84
2023-03-06T07:02:59.195Z,98813.66
2023-03-06T07:03:41.167Z,98812.84
2023-03-06T07:04:22.867Z,98803.00
2023-03-06T07:05:05.696Z,98805.47
2023-03-06T07:05:54.687Z,98800.22
2023-03-06T07:06:36.311Z,98815.94
2023-03-06T07:07:18.165Z,98812.34
2023-03-06T07:07:59.876Z,98816.56
2023-03-06T07:08:41.544Z,98796.59
2023-03-06T07:09:23.652Z,98814.63
2023-03-06T07:10:08.159Z,98807.06
2023-03-06T07:10:50.039Z,98840.97
2023-03-06T07:11:31.690Z,98812.31
2023-03-06T07:12:13.396Z,98789.88
2023-03-06T07:12:56.475Z,98836.03
2023-03-06T07:13:38.385Z,98832.28
2023-03-06T07:14:20.102Z,98827.72
2023-03-06T07:15:02.114Z,98826.38
2023-03-06T07:15:43.975Z,98834.25
2023-03-06T07:16:25.596Z,98837.03
2023-03-06T07:17:07.169Z,98841.78
2023-03-06T07:17:50.289Z,98834.44
2023-03-06T07:18:31.986Z,98802.97
2023-03-06T07:19:13.744Z,98821.00
2023-03-06T07:19:55.402Z,98844.41
2023-03-06T07:20:37.123Z,98848.66
2023-03-06T07:21:18.790Z,98814.63
2023-03-06T07:22:00.681Z,98823.81
2023-03-06T07:22:50.769Z,98627.63
2023-03-06T07:23:33.350Z,98822.81
2023-03-06T07:24:15.083Z,98814.13
2023-03-06T07:24:56.799Z,98840.03
2023-03-06T07:25:38.927Z,98841.31
2023-03-06T07:26:20.503Z,98797.25
2023-03-06T07:27:02.165Z,98827.59
2023-03-06T07:27:48.771Z,98837.06
2023-03-06T07:28:49.818Z,98807.09
2023-03-06T07:29:34.523Z,98835.44
2023-03-06T07:30:16.549Z,98841.00
2023-03-06T07:30:58.228Z,98841.47
2023-03-06T07:31:40.068Z,98832.63
2023-03-06T07:32:21.880Z,98848.69
2023-03-06T07:33:03.693Z,98851.31
2023-03-06T07:33:45.398Z,98841.81
2023-03-06T07:34:27.137Z,98832.97
2023-03-06T07:35:22.456Z,98814.63
2023-03-06T07:36:09.828Z,98758.28
2023-03-06T07:36:52.211Z,98845.41
2023-03-06T07:37:33.817Z,98760.41
2023-03-06T07:38:15.484Z,98833.81
2023-03-06T07:38:57.106Z,98847.06
2023-03-06T07:39:38.976Z,98835.75
2023-03-06T07:40:21.062Z,98851.31
2023-03-06T07:41:04.714Z,98828.88
2023-03-06T07:41:46.314Z,98667.94
2023-03-06T07:42:29.185Z,98843.63
2023-03-06T07:43:19.515Z,98840.50
2023-03-06T07:44:10.037Z,98850.34
2023-03-06T07:44:51.774Z,98747.97
2023-03-06T07:45:33.536Z,98822.47
2023-03-06T07:46:15.705Z,98840.50
2023-03-06T07:46:57.489Z,98836.75
2023-03-06T07:47:39.765Z,98826.72
2023-03-06T07:48:21.380Z,98833.31
2023-03-06T07:49:03.045Z,98773.97
2023-03-06T07:49:44.768Z,98844.41
2023-03-06T07:50:26.581Z,98844.56
2023-03-06T07:51:15.333Z,98851.63
2023-03-06T07:51:58.270Z,98812.94
2023-03-06T07:52:39.949Z,98785.06
2023-03-06T07:53:22.700Z,98843.59
2023-03-06T07:54:04.407Z,98848.00
2023-03-06T07:54:45.978Z,98847.34
2023-03-06T07:55:27.718Z,98852.44
2023-03-06T07:56:10.972Z,98835.72
2023-03-06T07:56:53.042Z,98842.78
2023-03-06T07:57:34.629Z,98815.41
2023-03-06T07:58:16.201Z,98839.69
2023-03-06T07:58:57.810Z,98846.56
2023-03-06T07:59:39.430Z,98845.38
2023-03-06T08:00:21.384Z,98803.13
2023-03-06T08:01:05.067Z,98837.06
2023-03-06T08:01:46.696Z,98843.94
2023-03-06T08:02:28.268Z,98850.00
2023-03-06T08:03:12.370Z,98832.47
2023-03-06T08:03:54.406Z,98748.13
2023-03-06T08:04:36.075Z,98850.66
2023-03-06T08:05:18.051Z,98842.81
2023-03-06T08:06:15.093Z,98849.00
2023-03-06T08:06:59.670Z,98847.38
2023-03-06T08:07:42.729Z,98810.72
2023-03-06T08:08:24.388Z,98842.47
2023-03-06T08:09:05.973Z,98848.69
2023-03-06T08:09:48.116Z,98847.56
2023-03-06T08:10:29.929Z,98847.88
2023-03-06T08:11:14.213Z,98850.00
2023-03-06T08:11:56.572Z,98834.75
2023-03-06T08:12:38.431Z,98844.75
2023-03-06T08:13:20.021Z,98820.88
2023-03-06T08:14:01.684Z,98848.38
2023-03-06T08:14:43.257Z,98847.25
2023-03-06T08:15:24.956Z,98853.94
2023-03-06T08:16:07.498Z,98853.63
2023-03-06T08:16:51.157Z,98764.88
2023-03-06T08:17:32.745Z,98850.00
2023-03-06T08:18:14.363Z,98833.63
2023-03-06T08:18:57.006Z,98833.31
2023-03-06T08:19:38.697Z,98850.50
2023-03-06T08:20:20.537Z,98845.13
2023-03-06T08:21:14.555Z,98854.59
2023-03-06T08:21:56.488Z,98782.06
2023-03-06T08:22:38.558Z,98852.78
2023-03-06T08:23:20.200Z,98851.66
2023-03-06T08:24:01.920Z,98859.66
2023-03-06T08:24:43.745Z,98852.31